Airfield :
LOGIN :

Register | Disclaimer

   EN    FR    IT 

 










Legend :    VFR   Marginal VFR   IFR   Intensive IFR   Very Intensive IFR
Visi :
Ceiling :
>= 8 km
>= 3000ft
5 to 8 km
1000 to 3000 ft
1500m to 5 km
500 to 1000 ft
800 to 1500m
200 to 500 ft
< 800m
< 200 ft
Symbols :   Thunderstorms  Fog  Heavy snow  Heavy precipitations  Wind > 20 kt
SIGMETs :     Misc.  Thunderstorms  Icing  Turbulence  Mountain Waves  Volcanic Ashes






- Airport Elevation : 584 ft


LFPV - Villacoublay Vélizy

CURRENT METAR :
  • 090630Z AUTO 01007KT 340V050 CAVOK 18/12 Q1025 NOSIG

EXPIRED METARs :
  • 090600Z AUTO 02008KT 350V050 CAVOK 17/12 Q1024 NOSIG
  • 090530Z AUTO 03008KT 350V070 CAVOK 17/12 Q1024 NOSIG
  • 090500Z AUTO 02008KT 340V060 CAVOK 17/12 Q1024 NOSIG
  • 090430Z AUTO 02007KT 350V050 CAVOK 17/12 Q1024 NOSIG
  • 090400Z AUTO 03010KT 360V060 CAVOK 17/12 Q1024 NOSIG

TAF TAF LFPV
Valid from the 09 at 03:00 until the 10 at 03:00 UTC


090200Z 0903/1003 04008KT CAVOK TX31/0915Z TN16/0904Z



MET'MAP, your aeronautical weather chart ! - Copyright ORBIFLY December 2007 - Disclaimer

ORBIFLY MET'MAP TEAM :

Programming & Development : Alexandra Zaïnal
Original concept : Baudouin d'Aumeries
Technical & hardware support : Manuel Goepfert
Assistance : Marc-Olivier Méhu




SOURCES & CREDITS :

   NOAA